sensor_id;sensor_type;location;lat;lon;timestamp;temperature;humidity
41668;DHT22;27356;50.920;5.350;2022-11-09T00:01:22;14.10;99.90
41668;DHT22;27356;50.920;5.350;2022-11-09T00:03:47;14.10;99.90
41668;DHT22;27356;50.920;5.350;2022-11-09T00:06:13;14.20;99.90
41668;DHT22;27356;50.920;5.350;2022-11-09T00:08:39;14.20;99.90
41668;DHT22;27356;50.920;5.350;2022-11-09T00:11:06;14.20;99.90
41668;DHT22;27356;50.920;5.350;2022-11-09T00:13:34;14.30;99.90
41668;DHT22;27356;50.920;5.350;2022-11-09T00:16:00;14.40;99.90
41668;DHT22;27356;50.920;5.350;2022-11-09T00:18:26;14.40;99.90
41668;DHT22;27356;50.920;5.350;2022-11-09T00:20:52;14.40;99.90
41668;DHT22;27356;50.920;5.350;2022-11-09T00:23:18;14.40;99.90
41668;DHT22;27356;50.920;5.350;2022-11-09T00:25:43;14.40;99.90
41668;DHT22;27356;50.920;5.350;2022-11-09T00:28:09;14.40;99.90
41668;DHT22;27356;50.920;5.350;2022-11-09T00:30:34;14.30;99.90
41668;DHT22;27356;50.920;5.350;2022-11-09T00:33:00;14.30;99.90
41668;DHT22;27356;50.920;5.350;2022-11-09T00:35:25;14.30;99.90
41668;DHT22;27356;50.920;5.350;2022-11-09T00:37:51;14.20;99.90
41668;DHT22;27356;50.920;5.350;2022-11-09T00:40:17;14.20;99.90
41668;DHT22;27356;50.920;5.350;2022-11-09T00:42:42;14.00;99.90
41668;DHT22;27356;50.920;5.350;2022-11-09T00:45:08;14.00;99.90
41668;DHT22;27356;50.920;5.350;2022-11-09T00:47:33;14.10;99.90
41668;DHT22;27356;50.920;5.350;2022-11-09T00:49:59;14.00;99.90
41668;DHT22;27356;50.920;5.350;2022-11-09T00:52:24;13.90;99.90
41668;DHT22;27356;50.920;5.350;2022-11-09T00:54:50;13.80;99.90
41668;DHT22;27356;50.920;5.350;2022-11-09T00:57:15;13.90;99.90
41668;DHT22;27356;50.920;5.350;2022-11-09T00:59:41;13.90;99.90
41668;DHT22;27356;50.920;5.350;2022-11-09T01:02:07;13.80;99.90
41668;DHT22;27356;50.920;5.350;2022-11-09T01:04:32;13.80;99.90
41668;DHT22;27356;50.920;5.350;2022-11-09T01:06:58;13.80;99.90
41668;DHT22;27356;50.920;5.350;2022-11-09T01:09:23;13.70;99.90
41668;DHT22;27356;50.920;5.350;2022-11-09T01:11:49;13.80;99.90
41668;DHT22;27356;50.920;5.350;2022-11-09T01:14:14;13.70;99.90
41668;DHT22;27356;50.920;5.350;2022-11-09T01:16:40;13.70;99.90
41668;DHT22;27356;50.920;5.350;2022-11-09T01:19:06;13.60;99.90
41668;DHT22;27356;50.920;5.350;2022-11-09T01:21:31;13.60;99.90
41668;DHT22;27356;50.920;5.350;2022-11-09T01:23:57;13.60;99.90
41668;DHT22;27356;50.920;5.350;2022-11-09T01:26:22;13.60;99.90
41668;DHT22;27356;50.920;5.350;2022-11-09T01:28:48;13.60;99.90
41668;DHT22;27356;50.920;5.350;2022-11-09T01:31:16;13.50;99.90
41668;DHT22;27356;50.920;5.350;2022-11-09T01:33:41;13.50;99.90
41668;DHT22;27356;50.920;5.350;2022-11-09T01:36:08;13.50;99.90
41668;DHT22;27356;50.920;5.350;2022-11-09T01:38:35;13.50;99.90
41668;DHT22;27356;50.920;5.350;2022-11-09T01:41:01;13.60;99.90
41668;DHT22;27356;50.920;5.350;2022-11-09T01:43:26;13.50;99.90
41668;DHT22;27356;50.920;5.350;2022-11-09T01:45:54;13.50;99.90
41668;DHT22;27356;50.920;5.350;2022-11-09T01:48:29;13.50;99.90
41668;DHT22;27356;50.920;5.350;2022-11-09T01:50:57;13.50;99.90
41668;DHT22;27356;50.920;5.350;2022-11-09T01:53:25;13.50;99.90
41668;DHT22;27356;50.920;5.350;2022-11-09T01:55:53;13.60;99.90
41668;DHT22;27356;50.920;5.350;2022-11-09T01:58:21;13.50;99.90
41668;DHT22;27356;50.920;5.350;2022-11-09T02:00:47;13.50;99.90
41668;DHT22;27356;50.920;5.350;2022-11-09T02:03:16;13.40;99.90
41668;DHT22;27356;50.920;5.350;2022-11-09T02:05:42;13.40;99.90
41668;DHT22;27356;50.920;5.350;2022-11-09T02:08:08;13.30;99.90
41668;DHT22;27356;50.920;5.350;2022-11-09T02:10:39;13.30;99.90
41668;DHT22;27356;50.920;5.350;2022-11-09T02:13:06;13.20;99.90
41668;DHT22;27356;50.920;5.350;2022-11-09T02:15:32;13.20;99.90
41668;DHT22;27356;50.920;5.350;2022-11-09T02:17:58;13.20;99.90
41668;DHT22;27356;50.920;5.350;2022-11-09T02:20:24;13.30;99.90
41668;DHT22;27356;50.920;5.350;2022-11-09T02:22:49;13.30;99.90
41668;DHT22;27356;50.920;5.350;2022-11-09T02:25:15;13.30;99.90
41668;DHT22;27356;50.920;5.350;2022-11-09T02:27:42;13.30;99.90
41668;DHT22;27356;50.920;5.350;2022-11-09T02:30:08;13.30;99.90
41668;DHT22;27356;50.920;5.350;2022-11-09T02:32:34;13.40;99.90
41668;DHT22;27356;50.920;5.350;2022-11-09T02:34:59;13.40;99.90
41668;DHT22;27356;50.920;5.350;2022-11-09T02:37:36;13.30;99.90
41668;DHT22;27356;50.920;5.350;2022-11-09T02:40:03;13.30;99.90
41668;DHT22;27356;50.920;5.350;2022-11-09T02:42:31;13.30;99.90
41668;DHT22;27356;50.920;5.350;2022-11-09T02:44:58;13.20;99.90
41668;DHT22;27356;50.920;5.350;2022-11-09T02:47:23;13.10;99.90
41668;DHT22;27356;50.920;5.350;2022-11-09T02:49:49;13.20;99.90
41668;DHT22;27356;50.920;5.350;2022-11-09T02:52:15;13.20;99.90
41668;DHT22;27356;50.920;5.350;2022-11-09T02:54:41;13.20;99.90
41668;DHT22;27356;50.920;5.350;2022-11-09T02:57:06;13.30;99.90
41668;DHT22;27356;50.920;5.350;2022-11-09T02:59:32;13.20;99.90
41668;DHT22;27356;50.920;5.350;2022-11-09T03:01:58;13.20;99.90
41668;DHT22;27356;50.920;5.350;2022-11-09T03:04:23;13.20;99.90
41668;DHT22;27356;50.920;5.350;2022-11-09T03:06:49;13.30;99.90
41668;DHT22;27356;50.920;5.350;2022-11-09T03:09:14;13.40;99.90
41668;DHT22;27356;50.920;5.350;2022-11-09T03:11:40;13.50;99.90
41668;DHT22;27356;50.920;5.350;2022-11-09T03:14:06;13.50;99.90
41668;DHT22;27356;50.920;5.350;2022-11-09T03:16:34;13.50;99.90
41668;DHT22;27356;50.920;5.350;2022-11-09T03:19:00;13.40;99.90
41668;DHT22;27356;50.920;5.350;2022-11-09T03:21:25;13.40;99.90
41668;DHT22;27356;50.920;5.350;2022-11-09T03:23:52;13.40;99.90
41668;DHT22;27356;50.920;5.350;2022-11-09T03:26:18;13.50;99.90
41668;DHT22;27356;50.920;5.350;2022-11-09T03:28:44;13.50;99.90
41668;DHT22;27356;50.920;5.350;2022-11-09T03:31:09;13.40;99.90
41668;DHT22;27356;50.920;5.350;2022-11-09T03:33:35;13.60;99.90
41668;DHT22;27356;50.920;5.350;2022-11-09T03:36:00;13.50;99.90
41668;DHT22;27356;50.920;5.350;2022-11-09T03:38:26;13.50;99.90
41668;DHT22;27356;50.920;5.350;2022-11-09T03:40:51;13.60;99.90
41668;DHT22;27356;50.920;5.350;2022-11-09T03:43:17;13.50;99.90
41668;DHT22;27356;50.920;5.350;2022-11-09T03:45:42;13.60;99.90
41668;DHT22;27356;50.920;5.350;2022-11-09T03:48:08;13.60;99.90
41668;DHT22;27356;50.920;5.350;2022-11-09T03:50:34;13.70;99.90
41668;DHT22;27356;50.920;5.350;2022-11-09T03:52:59;13.70;99.90
41668;DHT22;27356;50.920;5.350;2022-11-09T03:55:26;13.70;99.90
41668;DHT22;27356;50.920;5.350;2022-11-09T03:57:51;13.80;99.90
41668;DHT22;27356;50.920;5.350;2022-11-09T04:00:18;13.70;99.90
41668;DHT22;27356;50.920;5.350;2022-11-09T04:02:43;13.60;99.90
41668;DHT22;27356;50.920;5.350;2022-11-09T04:05:09;13.60;99.90
41668;DHT22;27356;50.920;5.350;2022-11-09T04:07:36;13.60;99.90
41668;DHT22;27356;50.920;5.350;2022-11-09T04:10:01;13.60;99.90
41668;DHT22;27356;50.920;5.350;2022-11-09T04:12:27;13.70;99.90
41668;DHT22;27356;50.920;5.350;2022-11-09T04:14:52;13.70;99.90
41668;DHT22;27356;50.920;5.350;2022-11-09T04:17:18;13.80;99.90
41668;DHT22;27356;50.920;5.350;2022-11-09T04:19:43;13.80;99.90
41668;DHT22;27356;50.920;5.350;2022-11-09T04:22:09;13.80;99.90
41668;DHT22;27356;50.920;5.350;2022-11-09T04:24:34;13.80;99.90
41668;DHT22;27356;50.920;5.350;2022-11-09T04:27:00;13.80;99.90
41668;DHT22;27356;50.920;5.350;2022-11-09T04:29:25;13.80;99.90
41668;DHT22;27356;50.920;5.350;2022-11-09T04:31:51;13.80;99.90
41668;DHT22;27356;50.920;5.350;2022-11-09T04:34:17;13.80;99.90
41668;DHT22;27356;50.920;5.350;2022-11-09T04:36:42;13.80;99.90
41668;DHT22;27356;50.920;5.350;2022-11-09T04:39:08;13.80;99.90
41668;DHT22;27356;50.920;5.350;2022-11-09T04:41:33;13.70;99.90
41668;DHT22;27356;50.920;5.350;2022-11-09T04:43:59;13.70;99.90
41668;DHT22;27356;50.920;5.350;2022-11-09T04:46:25;13.60;99.90
41668;DHT22;27356;50.920;5.350;2022-11-09T04:48:51;13.50;99.90
41668;DHT22;27356;50.920;5.350;2022-11-09T04:51:16;13.50;99.90
41668;DHT22;27356;50.920;5.350;2022-11-09T04:53:42;13.50;99.90
41668;DHT22;27356;50.920;5.350;2022-11-09T04:56:07;13.50;99.90
41668;DHT22;27356;50.920;5.350;2022-11-09T04:58:33;13.50;99.90
41668;DHT22;27356;50.920;5.350;2022-11-09T05:01:05;13.50;99.90
41668;DHT22;27356;50.920;5.350;2022-11-09T05:03:31;13.40;99.90
41668;DHT22;27356;50.920;5.350;2022-11-09T05:05:56;13.40;99.90
41668;DHT22;27356;50.920;5.350;2022-11-09T05:08:22;13.40;99.90
41668;DHT22;27356;50.920;5.350;2022-11-09T05:10:47;13.30;99.90
41668;DHT22;27356;50.920;5.350;2022-11-09T05:13:13;13.20;99.90
41668;DHT22;27356;50.920;5.350;2022-11-09T05:15:38;13.20;99.90
41668;DHT22;27356;50.920;5.350;2022-11-09T05:18:04;13.20;99.90
41668;DHT22;27356;50.920;5.350;2022-11-09T05:20:30;13.20;99.90
41668;DHT22;27356;50.920;5.350;2022-11-09T05:22:56;13.10;99.90
41668;DHT22;27356;50.920;5.350;2022-11-09T05:25:41;13.20;99.90
41668;DHT22;27356;50.920;5.350;2022-11-09T05:28:06;13.00;99.90
41668;DHT22;27356;50.920;5.350;2022-11-09T05:30:32;12.90;99.90
41668;DHT22;27356;50.920;5.350;2022-11-09T05:32:57;12.90;99.90
41668;DHT22;27356;50.920;5.350;2022-11-09T05:35:23;12.90;99.90
41668;DHT22;27356;50.920;5.350;2022-11-09T05:37:48;12.80;99.90
41668;DHT22;27356;50.920;5.350;2022-11-09T05:40:14;12.80;99.90
41668;DHT22;27356;50.920;5.350;2022-11-09T05:42:40;12.70;99.90
41668;DHT22;27356;50.920;5.350;2022-11-09T05:45:07;12.60;99.90
41668;DHT22;27356;50.920;5.350;2022-11-09T05:47:37;12.60;99.90
41668;DHT22;27356;50.920;5.350;2022-11-09T05:50:03;12.60;99.90
41668;DHT22;27356;50.920;5.350;2022-11-09T05:52:29;12.60;99.90
41668;DHT22;27356;50.920;5.350;2022-11-09T05:54:54;12.60;99.90
41668;DHT22;27356;50.920;5.350;2022-11-09T05:57:20;12.60;99.90
41668;DHT22;27356;50.920;5.350;2022-11-09T05:59:46;12.50;99.90
41668;DHT22;27356;50.920;5.350;2022-11-09T06:02:12;12.40;99.90
41668;DHT22;27356;50.920;5.350;2022-11-09T06:04:37;12.30;99.90
41668;DHT22;27356;50.920;5.350;2022-11-09T06:07:03;12.30;99.90
41668;DHT22;27356;50.920;5.350;2022-11-09T06:09:28;12.20;99.90
41668;DHT22;27356;50.920;5.350;2022-11-09T06:11:54;12.20;99.90
41668;DHT22;27356;50.920;5.350;2022-11-09T06:14:19;12.30;99.90
41668;DHT22;27356;50.920;5.350;2022-11-09T06:16:47;12.30;99.90
41668;DHT22;27356;50.920;5.350;2022-11-09T06:19:12;12.20;99.90
41668;DHT22;27356;50.920;5.350;2022-11-09T06:21:38;12.20;99.90
41668;DHT22;27356;50.920;5.350;2022-11-09T06:24:03;12.20;99.90
41668;DHT22;27356;50.920;5.350;2022-11-09T06:26:29;12.00;99.90
41668;DHT22;27356;50.920;5.350;2022-11-09T06:28:55;12.00;99.90
41668;DHT22;27356;50.920;5.350;2022-11-09T06:31:20;12.10;99.90
41668;DHT22;27356;50.920;5.350;2022-11-09T06:33:46;12.10;99.90
41668;DHT22;27356;50.920;5.350;2022-11-09T06:36:12;12.00;99.90
41668;DHT22;27356;50.920;5.350;2022-11-09T06:38:37;12.00;99.90
41668;DHT22;27356;50.920;5.350;2022-11-09T06:41:03;11.90;99.90
41668;DHT22;27356;50.920;5.350;2022-11-09T06:43:28;11.90;99.90
41668;DHT22;27356;50.920;5.350;2022-11-09T06:45:54;11.80;99.90
41668;DHT22;27356;50.920;5.350;2022-11-09T06:48:20;11.80;99.90
41668;DHT22;27356;50.920;5.350;2022-11-09T06:50:46;11.80;99.90
41668;DHT22;27356;50.920;5.350;2022-11-09T06:53:12;11.70;99.90
41668;DHT22;27356;50.920;5.350;2022-11-09T06:55:38;11.80;99.90
41668;DHT22;27356;50.920;5.350;2022-11-09T06:58:05;11.80;99.90
41668;DHT22;27356;50.920;5.350;2022-11-09T07:00:31;11.70;99.90
41668;DHT22;27356;50.920;5.350;2022-11-09T07:02:56;11.70;99.90
41668;DHT22;27356;50.920;5.350;2022-11-09T07:05:22;11.70;99.90
41668;DHT22;27356;50.920;5.350;2022-11-09T07:07:47;11.70;99.90
41668;DHT22;27356;50.920;5.350;2022-11-09T07:10:13;11.70;99.90
41668;DHT22;27356;50.920;5.350;2022-11-09T07:12:38;11.70;99.90
41668;DHT22;27356;50.920;5.350;2022-11-09T07:15:04;11.80;99.90
41668;DHT22;27356;50.920;5.350;2022-11-09T07:17:30;11.80;99.90
41668;DHT22;27356;50.920;5.350;2022-11-09T07:19:56;11.90;99.90
41668;DHT22;27356;50.920;5.350;2022-11-09T07:22:22;11.80;99.90
41668;DHT22;27356;50.920;5.350;2022-11-09T07:24:47;11.90;99.90
41668;DHT22;27356;50.920;5.350;2022-11-09T07:27:13;12.00;99.90
41668;DHT22;27356;50.920;5.350;2022-11-09T07:29:39;12.00;99.90
41668;DHT22;27356;50.920;5.350;2022-11-09T07:32:04;12.10;99.90
41668;DHT22;27356;50.920;5.350;2022-11-09T07:34:30;12.20;99.90
41668;DHT22;27356;50.920;5.350;2022-11-09T07:36:55;12.30;99.90
41668;DHT22;27356;50.920;5.350;2022-11-09T07:39:21;12.40;99.90
41668;DHT22;27356;50.920;5.350;2022-11-09T07:41:46;12.40;99.90
41668;DHT22;27356;50.920;5.350;2022-11-09T07:44:13;12.50;99.90
41668;DHT22;27356;50.920;5.350;2022-11-09T07:46:42;12.40;99.90
41668;DHT22;27356;50.920;5.350;2022-11-09T07:49:08;12.50;99.90
41668;DHT22;27356;50.920;5.350;2022-11-09T07:51:34;12.50;99.90
41668;DHT22;27356;50.920;5.350;2022-11-09T07:53:59;12.50;99.90
41668;DHT22;27356;50.920;5.350;2022-11-09T07:56:25;12.60;99.90
41668;DHT22;27356;50.920;5.350;2022-11-09T07:58:50;12.70;99.90
41668;DHT22;27356;50.920;5.350;2022-11-09T08:01:16;12.80;99.90
41668;DHT22;27356;50.920;5.350;2022-11-09T08:03:41;12.80;99.90
41668;DHT22;27356;50.920;5.350;2022-11-09T08:06:07;12.90;99.90
41668;DHT22;27356;50.920;5.350;2022-11-09T08:08:32;13.00;99.90
41668;DHT22;27356;50.920;5.350;2022-11-09T08:10:58;13.00;99.90
41668;DHT22;27356;50.920;5.350;2022-11-09T08:13:24;13.20;99.90
41668;DHT22;27356;50.920;5.350;2022-11-09T08:15:49;13.20;99.90
41668;DHT22;27356;50.920;5.350;2022-11-09T08:18:19;13.50;99.90
41668;DHT22;27356;50.920;5.350;2022-11-09T08:20:46;13.60;99.90
41668;DHT22;27356;50.920;5.350;2022-11-09T08:23:12;13.80;99.90
41668;DHT22;27356;50.920;5.350;2022-11-09T08:25:38;14.00;99.90
41668;DHT22;27356;50.920;5.350;2022-11-09T08:28:03;14.30;99.90
41668;DHT22;27356;50.920;5.350;2022-11-09T08:30:29;14.40;99.90
41668;DHT22;27356;50.920;5.350;2022-11-09T08:32:54;14.80;99.90
41668;DHT22;27356;50.920;5.350;2022-11-09T08:35:21;14.70;99.90
41668;DHT22;27356;50.920;5.350;2022-11-09T08:37:47;15.00;99.90
41668;DHT22;27356;50.920;5.350;2022-11-09T08:40:14;15.40;99.90
41668;DHT22;27356;50.920;5.350;2022-11-09T08:42:40;15.40;99.90
41668;DHT22;27356;50.920;5.350;2022-11-09T08:45:06;15.20;99.90
41668;DHT22;27356;50.920;5.350;2022-11-09T08:47:31;14.80;99.90
41668;DHT22;27356;50.920;5.350;2022-11-09T08:50:00;14.80;99.90
41668;DHT22;27356;50.920;5.350;2022-11-09T08:52:25;14.50;99.90
41668;DHT22;27356;50.920;5.350;2022-11-09T08:54:51;14.60;99.90
41668;DHT22;27356;50.920;5.350;2022-11-09T08:57:18;14.60;99.90
41668;DHT22;27356;50.920;5.350;2022-11-09T08:59:43;14.50;99.90
41668;DHT22;27356;50.920;5.350;2022-11-09T09:02:09;14.20;99.90
41668;DHT22;27356;50.920;5.350;2022-11-09T09:04:35;14.30;99.90
41668;DHT22;27356;50.920;5.350;2022-11-09T09:07:00;14.20;99.90
41668;DHT22;27356;50.920;5.350;2022-11-09T09:09:26;14.10;99.90
41668;DHT22;27356;50.920;5.350;2022-11-09T09:11:51;14.10;99.90
41668;DHT22;27356;50.920;5.350;2022-11-09T09:14:17;14.10;99.90
41668;DHT22;27356;50.920;5.350;2022-11-09T09:16:43;14.10;99.90
41668;DHT22;27356;50.920;5.350;2022-11-09T09:19:08;14.10;99.90
41668;DHT22;27356;50.920;5.350;2022-11-09T09:21:37;14.20;99.90
41668;DHT22;27356;50.920;5.350;2022-11-09T09:24:02;14.30;99.90
41668;DHT22;27356;50.920;5.350;2022-11-09T09:26:28;14.30;99.90
41668;DHT22;27356;50.920;5.350;2022-11-09T09:28:54;14.20;99.90
41668;DHT22;27356;50.920;5.350;2022-11-09T09:31:19;14.20;99.90
41668;DHT22;27356;50.920;5.350;2022-11-09T09:33:45;14.20;99.90
41668;DHT22;27356;50.920;5.350;2022-11-09T09:36:19;14.30;99.90
41668;DHT22;27356;50.920;5.350;2022-11-09T09:38:45;14.30;99.90
41668;DHT22;27356;50.920;5.350;2022-11-09T09:41:16;14.40;99.90
41668;DHT22;27356;50.920;5.350;2022-11-09T09:43:46;14.50;99.90
41668;DHT22;27356;50.920;5.350;2022-11-09T09:46:36;14.70;99.90
41668;DHT22;27356;50.920;5.350;2022-11-09T09:49:02;14.70;99.90
41668;DHT22;27356;50.920;5.350;2022-11-09T09:54:01;14.70;99.90
41668;DHT22;27356;50.920;5.350;2022-11-09T09:56:33;14.80;99.90
41668;DHT22;27356;50.920;5.350;2022-11-09T09:59:04;14.80;99.90
41668;DHT22;27356;50.920;5.350;2022-11-09T10:01:36;14.80;99.90
41668;DHT22;27356;50.920;5.350;2022-11-09T10:04:01;14.90;99.90
41668;DHT22;27356;50.920;5.350;2022-11-09T10:06:39;14.90;99.90
41668;DHT22;27356;50.920;5.350;2022-11-09T10:09:25;15.00;99.90
41668;DHT22;27356;50.920;5.350;2022-11-09T10:11:59;15.00;99.90
41668;DHT22;27356;50.920;5.350;2022-11-09T10:14:32;15.00;99.90
41668;DHT22;27356;50.920;5.350;2022-11-09T10:19:58;14.90;99.90
41668;DHT22;27356;50.920;5.350;2022-11-09T10:22:34;14.90;99.90
41668;DHT22;27356;50.920;5.350;2022-11-09T10:27:42;15.00;99.90
41668;DHT22;27356;50.920;5.350;2022-11-09T10:30:15;15.10;99.90
41668;DHT22;27356;50.920;5.350;2022-11-09T10:32:42;15.20;99.90
41668;DHT22;27356;50.920;5.350;2022-11-09T10:37:38;15.00;99.90
41668;DHT22;27356;50.920;5.350;2022-11-09T10:42:32;15.20;99.90
41668;DHT22;27356;50.920;5.350;2022-11-09T10:44:58;15.20;99.90
41668;DHT22;27356;50.920;5.350;2022-11-09T10:47:25;15.10;99.90
41668;DHT22;27356;50.920;5.350;2022-11-09T10:50:12;15.20;99.90
41668;DHT22;27356;50.920;5.350;2022-11-09T10:52:40;15.30;99.90
41668;DHT22;27356;50.920;5.350;2022-11-09T10:55:14;15.40;99.90
41668;DHT22;27356;50.920;5.350;2022-11-09T10:57:49;15.50;99.90
41668;DHT22;27356;50.920;5.350;2022-11-09T11:00:15;15.40;99.90
41668;DHT22;27356;50.920;5.350;2022-11-09T11:02:42;15.30;99.90
41668;DHT22;27356;50.920;5.350;2022-11-09T11:07:34;15.20;99.90
41668;DHT22;27356;50.920;5.350;2022-11-09T11:12:34;15.60;99.90
41668;DHT22;27356;50.920;5.350;2022-11-09T11:15:00;15.70;99.90
41668;DHT22;27356;50.920;5.350;2022-11-09T11:17:26;15.90;99.90
41668;DHT22;27356;50.920;5.350;2022-11-09T11:19:53;15.90;99.90
41668;DHT22;27356;50.920;5.350;2022-11-09T11:22:20;15.80;99.90
41668;DHT22;27356;50.920;5.350;2022-11-09T11:25:00;15.80;99.90
41668;DHT22;27356;50.920;5.350;2022-11-09T11:27:27;15.80;99.90
41668;DHT22;27356;50.920;5.350;2022-11-09T11:32:20;15.90;99.90
41668;DHT22;27356;50.920;5.350;2022-11-09T11:34:47;15.80;99.90
41668;DHT22;27356;50.920;5.350;2022-11-09T11:40:04;15.90;99.90
41668;DHT22;27356;50.920;5.350;2022-11-09T11:42:35;15.90;99.90
41668;DHT22;27356;50.920;5.350;2022-11-09T11:47:58;15.80;99.90
41668;DHT22;27356;50.920;5.350;2022-11-09T11:53:01;15.70;99.90
41668;DHT22;27356;50.920;5.350;2022-11-09T12:00:46;15.80;99.90
41668;DHT22;27356;50.920;5.350;2022-11-09T12:08:25;16.00;99.90
41668;DHT22;27356;50.920;5.350;2022-11-09T12:16:08;16.00;99.90
41668;DHT22;27356;50.920;5.350;2022-11-09T12:26:02;15.70;99.90
41668;DHT22;27356;50.920;5.350;2022-11-09T12:33:50;15.80;99.90
41668;DHT22;27356;50.920;5.350;2022-11-09T12:36:19;15.70;99.90
41668;DHT22;27356;50.920;5.350;2022-11-09T12:39:30;15.70;99.90
41668;DHT22;27356;50.920;5.350;2022-11-09T12:41:35;15.50;99.90
41668;DHT22;27356;50.920;5.350;2022-11-09T12:44:10;15.10;99.90
41668;DHT22;27356;50.920;5.350;2022-11-09T12:46:41;15.10;99.90
41668;DHT22;27356;50.920;5.350;2022-11-09T12:49:12;15.10;99.90
41668;DHT22;27356;50.920;5.350;2022-11-09T12:51:40;15.00;99.90
41668;DHT22;27356;50.920;5.350;2022-11-09T12:54:07;15.00;99.90
41668;DHT22;27356;50.920;5.350;2022-11-09T12:56:39;15.00;99.90
41668;DHT22;27356;50.920;5.350;2022-11-09T12:59:20;15.00;99.90
41668;DHT22;27356;50.920;5.350;2022-11-09T13:01:52;14.90;99.90
41668;DHT22;27356;50.920;5.350;2022-11-09T13:04:18;14.80;99.90
41668;DHT22;27356;50.920;5.350;2022-11-09T13:07:15;14.80;99.90
41668;DHT22;27356;50.920;5.350;2022-11-09T13:09:30;14.70;99.90
41668;DHT22;27356;50.920;5.350;2022-11-09T13:11:55;14.60;99.90
41668;DHT22;27356;50.920;5.350;2022-11-09T13:16:50;15.00;99.90
41668;DHT22;27356;50.920;5.350;2022-11-09T13:21:56;15.20;99.90
41668;DHT22;27356;50.920;5.350;2022-11-09T13:26:55;15.70;99.90
41668;DHT22;27356;50.920;5.350;2022-11-09T13:29:22;15.90;99.90
41668;DHT22;27356;50.920;5.350;2022-11-09T13:39:47;16.00;99.90
41668;DHT22;27356;50.920;5.350;2022-11-09T13:42:24;16.00;99.90
41668;DHT22;27356;50.920;5.350;2022-11-09T13:44:51;16.00;99.90
41668;DHT22;27356;50.920;5.350;2022-11-09T13:47:21;16.00;99.90
41668;DHT22;27356;50.920;5.350;2022-11-09T13:49:47;16.10;99.90
41668;DHT22;27356;50.920;5.350;2022-11-09T13:54:59;16.30;99.90
41668;DHT22;27356;50.920;5.350;2022-11-09T13:57:25;16.50;99.90
41668;DHT22;27356;50.920;5.350;2022-11-09T13:59:51;16.50;99.90
41668;DHT22;27356;50.920;5.350;2022-11-09T14:02:22;16.40;99.90
41668;DHT22;27356;50.920;5.350;2022-11-09T14:04:48;16.30;99.90
41668;DHT22;27356;50.920;5.350;2022-11-09T14:07:17;16.10;99.90
41668;DHT22;27356;50.920;5.350;2022-11-09T14:12:19;15.70;99.90
41668;DHT22;27356;50.920;5.350;2022-11-09T14:20:06;15.60;99.90
41668;DHT22;27356;50.920;5.350;2022-11-09T14:22:35;15.60;99.90
41668;DHT22;27356;50.920;5.350;2022-11-09T14:25:20;15.40;99.90
41668;DHT22;27356;50.920;5.350;2022-11-09T14:27:49;15.40;99.90
41668;DHT22;27356;50.920;5.350;2022-11-09T14:30:22;15.50;99.90
41668;DHT22;27356;50.920;5.350;2022-11-09T14:32:49;15.50;99.90
41668;DHT22;27356;50.920;5.350;2022-11-09T14:37:50;16.00;99.90
41668;DHT22;27356;50.920;5.350;2022-11-09T14:40:26;16.00;99.90
41668;DHT22;27356;50.920;5.350;2022-11-09T14:43:03;16.00;99.90
41668;DHT22;27356;50.920;5.350;2022-11-09T14:45:29;15.80;99.90
41668;DHT22;27356;50.920;5.350;2022-11-09T14:47:57;15.70;99.90
41668;DHT22;27356;50.920;5.350;2022-11-09T14:50:33;15.60;99.90
41668;DHT22;27356;50.920;5.350;2022-11-09T14:52:59;15.50;99.90
41668;DHT22;27356;50.920;5.350;2022-11-09T14:55:25;15.50;99.90
41668;DHT22;27356;50.920;5.350;2022-11-09T14:57:52;15.30;99.90
41668;DHT22;27356;50.920;5.350;2022-11-09T15:02:50;14.90;99.90
41668;DHT22;27356;50.920;5.350;2022-11-09T15:05:34;14.90;99.90
41668;DHT22;27356;50.920;5.350;2022-11-09T15:08:01;14.60;99.90
41668;DHT22;27356;50.920;5.350;2022-11-09T15:10:26;14.40;99.90
41668;DHT22;27356;50.920;5.350;2022-11-09T15:12:59;14.40;99.90
41668;DHT22;27356;50.920;5.350;2022-11-09T15:15:26;14.40;99.90
41668;DHT22;27356;50.920;5.350;2022-11-09T15:17:52;14.30;99.90
41668;DHT22;27356;50.920;5.350;2022-11-09T15:27:53;14.00;99.90
41668;DHT22;27356;50.920;5.350;2022-11-09T15:30:31;13.60;99.90
41668;DHT22;27356;50.920;5.350;2022-11-09T15:32:56;13.50;99.90
41668;DHT22;27356;50.920;5.350;2022-11-09T15:35:22;13.50;99.90
41668;DHT22;27356;50.920;5.350;2022-11-09T15:37:49;13.20;99.90
41668;DHT22;27356;50.920;5.350;2022-11-09T15:40:16;13.10;99.90
41668;DHT22;27356;50.920;5.350;2022-11-09T15:42:41;13.00;99.90
41668;DHT22;27356;50.920;5.350;2022-11-09T15:45:07;13.00;99.90
41668;DHT22;27356;50.920;5.350;2022-11-09T15:47:33;12.90;99.90
41668;DHT22;27356;50.920;5.350;2022-11-09T15:50:00;12.90;99.90
41668;DHT22;27356;50.920;5.350;2022-11-09T15:52:26;12.80;99.90
41668;DHT22;27356;50.920;5.350;2022-11-09T15:54:52;12.60;99.90
41668;DHT22;27356;50.920;5.350;2022-11-09T15:57:18;12.60;99.90
41668;DHT22;27356;50.920;5.350;2022-11-09T15:59:47;12.70;99.90
41668;DHT22;27356;50.920;5.350;2022-11-09T16:02:13;12.60;99.90
41668;DHT22;27356;50.920;5.350;2022-11-09T16:04:39;12.50;99.90
41668;DHT22;27356;50.920;5.350;2022-11-09T16:07:05;12.40;99.90
41668;DHT22;27356;50.920;5.350;2022-11-09T16:09:30;12.30;99.90
41668;DHT22;27356;50.920;5.350;2022-11-09T16:11:56;12.30;99.90
41668;DHT22;27356;50.920;5.350;2022-11-09T16:14:21;12.40;99.90
41668;DHT22;27356;50.920;5.350;2022-11-09T16:16:47;12.30;99.90
41668;DHT22;27356;50.920;5.350;2022-11-09T16:19:13;12.10;99.90
41668;DHT22;27356;50.920;5.350;2022-11-09T16:21:38;12.00;99.90
41668;DHT22;27356;50.920;5.350;2022-11-09T16:24:04;12.00;99.90
41668;DHT22;27356;50.920;5.350;2022-11-09T16:26:30;11.90;99.90
41668;DHT22;27356;50.920;5.350;2022-11-09T16:28:59;11.80;99.90
41668;DHT22;27356;50.920;5.350;2022-11-09T16:31:33;11.70;99.90
41668;DHT22;27356;50.920;5.350;2022-11-09T16:33:59;11.70;99.90
41668;DHT22;27356;50.920;5.350;2022-11-09T16:36:24;11.70;99.90
41668;DHT22;27356;50.920;5.350;2022-11-09T16:38:53;11.60;99.90
41668;DHT22;27356;50.920;5.350;2022-11-09T16:41:19;11.60;99.90
41668;DHT22;27356;50.920;5.350;2022-11-09T16:43:49;11.50;99.90
41668;DHT22;27356;50.920;5.350;2022-11-09T16:46:17;11.40;99.90
41668;DHT22;27356;50.920;5.350;2022-11-09T16:48:44;11.30;99.90
41668;DHT22;27356;50.920;5.350;2022-11-09T16:51:09;11.30;99.90
41668;DHT22;27356;50.920;5.350;2022-11-09T16:53:35;11.30;99.90
41668;DHT22;27356;50.920;5.350;2022-11-09T16:56:00;11.30;99.90
41668;DHT22;27356;50.920;5.350;2022-11-09T16:58:26;11.20;99.90
41668;DHT22;27356;50.920;5.350;2022-11-09T17:00:52;11.30;99.90
41668;DHT22;27356;50.920;5.350;2022-11-09T17:03:20;11.20;99.90
41668;DHT22;27356;50.920;5.350;2022-11-09T17:05:45;11.30;99.90